Time;durP1;ratioP1;P1;durP2;ratioP2;P2;SDS_P1;SDS_P2;PMS_P1;PMS_P2;Temp;Humidity;BMP_temperature;BMP_pressure;BME280_temperature;BME280_humidity;BME280_pressure;Samples;Min_cycle;Max_cycle;Signal;HPM_P1;HPM_P2
2021/12/04 00:02:16;;;;;;;20.40;9.93;;;;;;;-145.18;100.00;60484.78;5060908;28;20290;-69
2021/12/04 00:04:45;;;;;;;17.67;8.73;;;;;;;-145.18;100.00;60484.78;5060372;28;20309;-69
2021/12/04 00:07:11;;;;;;;20.13;8.87;;;;;;;-145.18;100.00;60484.78;5060143;28;20308;-69
2021/12/04 00:09:37;;;;;;;16.97;8.57;;;;;;;-145.18;100.00;60484.78;5058635;28;20270;-69
2021/12/04 00:12:05;;;;;;;19.03;9.57;;;;;;;-145.18;100.00;60484.78;5061048;28;20174;-68
2021/12/04 00:14:32;;;;;;;18.53;8.57;;;;;;;-145.18;100.00;60484.78;5061427;28;20278;-69
2021/12/04 00:16:58;;;;;;;18.40;9.13;;;;;;;-145.18;100.00;60484.78;5060181;28;20450;-69
2021/12/04 00:19:25;;;;;;;18.93;9.07;;;;;;;-145.18;100.00;60484.78;5061228;28;20285;-69
2021/12/04 00:21:51;;;;;;;19.87;10.17;;;;;;;-145.18;100.00;60484.78;5060019;28;20476;-69
2021/12/04 00:24:17;;;;;;;17.43;8.43;;;;;;;-145.18;100.00;60484.78;5060697;28;20376;-69
2021/12/04 00:26:43;;;;;;;20.03;9.43;;;;;;;-145.18;100.00;60484.78;5059723;28;20275;-69
2021/12/04 00:29:08;;;;;;;19.77;9.43;;;;;;;-145.18;100.00;60484.78;5061509;28;20024;-68
2021/12/04 00:31:34;;;;;;;16.40;8.03;;;;;;;-145.18;100.00;60484.78;5060611;28;20108;-69
2021/12/04 00:34:00;;;;;;;19.57;9.43;;;;;;;-145.18;100.00;60484.78;5058442;28;20052;-68
2021/12/04 00:49:53;;;;;;;20.90;10.03;;;;;;;-145.18;100.00;60484.78;5057949;28;20286;-69
2021/12/04 00:52:18;;;;;;;19.30;8.97;;;;;;;-145.18;100.00;60484.78;5060435;28;20754;-69
2021/12/04 00:54:45;;;;;;;18.93;9.00;;;;;;;-145.18;100.00;60484.78;5059260;28;20036;-69
2021/12/04 00:57:10;;;;;;;17.87;8.50;;;;;;;-145.18;100.00;60484.78;5059586;28;20180;-69
2021/12/04 00:59:36;;;;;;;20.47;9.93;;;;;;;-145.18;100.00;60484.78;5059458;28;20542;-69
2021/12/04 01:02:02;;;;;;;16.87;8.73;;;;;;;-145.18;100.00;60484.78;5052123;28;20062;-69
2021/12/04 01:04:28;;;;;;;17.90;8.43;;;;;;;-145.18;100.00;60484.78;5059992;28;20633;-69
2021/12/04 01:06:53;;;;;;;18.30;8.40;;;;;;;-145.18;100.00;60484.78;5059676;28;20278;-69
2021/12/04 01:09:21;;;;;;;16.80;8.27;;;;;;;-145.18;100.00;60484.78;5060177;28;20265;-69
2021/12/04 01:11:48;;;;;;;18.40;9.23;;;;;;;-145.18;100.00;60484.78;5050193;28;20024;-69
2021/12/04 01:14:17;;;;;;;17.90;8.73;;;;;;;-145.18;100.00;60484.78;5060170;28;20270;-69
2021/12/04 01:16:43;;;;;;;18.10;8.90;;;;;;;-145.18;100.00;60484.78;5057042;28;20302;-69
2021/12/04 01:19:09;;;;;;;16.23;7.50;;;;;;;-145.18;100.00;60484.78;5060269;28;20062;-69
2021/12/04 01:21:34;;;;;;;16.93;8.63;;;;;;;-145.18;100.00;60484.78;5059869;28;20032;-69
2021/12/04 01:24:00;;;;;;;15.63;7.67;;;;;;;-145.18;100.00;60484.78;5057467;28;20126;-69
2021/12/04 01:26:26;;;;;;;23.40;9.00;;;;;;;-145.18;100.00;60484.78;5054033;28;20058;-68
2021/12/04 01:28:52;;;;;;;20.13;8.40;;;;;;;-145.18;100.00;60484.78;5057747;28;20281;-69
2021/12/04 01:31:18;;;;;;;17.10;8.27;;;;;;;-145.18;100.00;60484.78;5058392;28;20267;-69
2021/12/04 01:33:44;;;;;;;15.40;7.20;;;;;;;-145.18;100.00;60484.78;5057263;28;20074;-69
2021/12/04 01:36:09;;;;;;;18.00;8.20;;;;;;;-145.18;100.00;60484.78;5056337;28;20279;-69
2021/12/04 01:38:36;;;;;;;15.73;7.80;;;;;;;-145.18;100.00;60484.78;5056656;28;20455;-69
2021/12/04 01:41:02;;;;;;;17.73;8.33;;;;;;;-145.18;100.00;60484.78;5055089;28;20075;-69
2021/12/04 01:43:27;;;;;;;17.47;8.40;;;;;;;-145.18;100.00;60484.78;5054771;28;20352;-69
2021/12/04 01:45:54;;;;;;;14.17;6.90;;;;;;;-145.18;100.00;60484.78;5057811;28;20794;-69
2021/12/04 01:48:20;;;;;;;15.97;7.87;;;;;;;-145.18;100.00;60484.78;5057874;28;20063;-70
2021/12/04 01:50:46;;;;;;;16.57;8.30;;;;;;;-145.18;100.00;60484.78;5059052;28;20283;-69
2021/12/04 01:53:11;;;;;;;18.83;8.13;;;;;;;-145.18;100.00;60484.78;5058740;28;20044;-69
2021/12/04 01:55:37;;;;;;;18.63;9.57;;;;;;;-145.18;100.00;60484.78;5059168;28;20260;-69
2021/12/04 01:58:04;;;;;;;18.73;8.73;;;;;;;-145.18;100.00;60484.78;5058225;28;20123;-69
2021/12/04 02:00:39;;;;;;;17.47;7.93;;;;;;;-145.18;100.00;60484.78;5057548;28;20036;-69
2021/12/04 02:03:07;;;;;;;18.87;8.97;;;;;;;-145.18;100.00;60484.78;5057094;28;20183;-69
2021/12/04 02:05:38;;;;;;;20.27;8.83;;;;;;;-145.18;100.00;60484.78;5056736;28;20045;-69
2021/12/04 02:08:17;;;;;;;17.63;8.40;;;;;;;-145.18;100.00;60484.78;5057541;28;20036;-69
2021/12/04 02:10:44;;;;;;;19.90;8.73;;;;;;;-145.18;100.00;60484.78;5056964;28;20618;-69
2021/12/04 02:13:10;;;;;;;15.87;7.60;;;;;;;-145.18;100.00;60484.78;5059107;28;20032;-69
2021/12/04 02:15:35;;;;;;;17.37;8.00;;;;;;;-145.18;100.00;60484.78;5057678;28;20281;-69
2021/12/04 02:18:03;;;;;;;18.90;9.27;;;;;;;-145.18;100.00;60484.78;5058090;28;20573;-69
2021/12/04 02:20:32;;;;;;;18.20;8.60;;;;;;;-145.18;100.00;60484.78;5057703;28;20613;-69
2021/12/04 02:22:58;;;;;;;21.33;9.37;;;;;;;-145.18;100.00;60484.78;5059231;28;20328;-69
2021/12/04 02:25:23;;;;;;;19.13;8.90;;;;;;;-145.18;100.00;60484.78;5057497;28;20032;-69
2021/12/04 02:27:49;;;;;;;18.20;8.63;;;;;;;-145.18;100.00;60484.78;5058521;28;20445;-69
2021/12/04 02:30:19;;;;;;;19.73;9.20;;;;;;;-145.18;100.00;60484.78;5057968;28;20051;-69
2021/12/04 02:32:44;;;;;;;21.23;9.70;;;;;;;-145.18;100.00;60484.78;5055067;28;20123;-69
2021/12/04 02:35:11;;;;;;;17.83;8.63;;;;;;;-145.18;100.00;60484.78;5054383;28;20294;-69
2021/12/04 02:37:38;;;;;;;19.07;8.63;;;;;;;-145.18;100.00;60484.78;5052689;28;20460;-69
2021/12/04 02:40:06;;;;;;;19.53;8.83;;;;;;;-145.18;100.00;60484.78;5057442;28;20270;-69
2021/12/04 02:42:32;;;;;;;21.13;9.80;;;;;;;-145.18;100.00;60484.78;5057874;28;20028;-69
2021/12/04 02:44:59;;;;;;;19.40;9.47;;;;;;;-145.18;100.00;60484.78;5057836;28;20120;-69
2021/12/04 02:47:26;;;;;;;17.27;9.07;;;;;;;-145.18;100.00;60484.78;5055445;28;20032;-69
2021/12/04 02:49:52;;;;;;;17.93;8.43;;;;;;;-145.18;100.00;60484.78;5056940;28;20033;-69
2021/12/04 02:52:19;;;;;;;17.63;8.40;;;;;;;-145.18;100.00;60484.78;5058164;28;20547;-69
2021/12/04 02:54:45;;;;;;;19.27;8.60;;;;;;;-145.18;100.00;60484.78;5058415;28;20275;-69
2021/12/04 02:57:14;;;;;;;18.43;8.83;;;;;;;-145.18;100.00;60484.78;5057749;28;20044;-69
2021/12/04 02:59:42;;;;;;;17.70;8.40;;;;;;;-145.18;100.00;60484.78;5056373;28;20274;-69
2021/12/04 03:02:16;;;;;;;17.57;8.60;;;;;;;-145.18;100.00;60484.78;5056711;28;20310;-69
2021/12/04 03:04:42;;;;;;;17.37;7.80;;;;;;;-145.18;100.00;60484.78;5047639;28;20362;-69
2021/12/04 03:07:07;;;;;;;19.30;8.30;;;;;;;-145.18;100.00;60484.78;5058037;28;20279;-69
2021/12/04 03:09:34;;;;;;;18.33;8.80;;;;;;;-145.18;100.00;60484.78;5053409;28;20131;-69
2021/12/04 03:12:05;;;;;;;23.63;8.73;;;;;;;-145.18;100.00;60484.78;5058264;28;20089;-69
2021/12/04 03:14:31;;;;;;;17.90;8.43;;;;;;;-145.18;100.00;60484.78;5055918;28;20289;-70
2021/12/04 03:16:57;;;;;;;16.73;8.27;;;;;;;-145.18;100.00;60484.78;5057696;28;20032;-69
2021/12/04 03:19:23;;;;;;;18.67;9.03;;;;;;;-145.18;100.00;60484.78;5057258;28;20044;-69
2021/12/04 03:21:48;;;;;;;18.47;8.73;;;;;;;-145.18;100.00;60484.78;5058310;28;20270;-69
2021/12/04 03:24:16;;;;;;;19.83;9.00;;;;;;;-145.18;100.00;60484.78;5057746;28;20424;-69
2021/12/04 03:26:42;;;;;;;17.70;7.80;;;;;;;-145.18;100.00;60484.78;5058544;28;20044;-69
2021/12/04 03:29:11;;;;;;;17.70;8.73;;;;;;;-145.18;100.00;60484.78;5057678;28;20431;-69
2021/12/04 03:32:05;;;;;;;17.30;8.30;;;;;;;-145.18;100.00;60484.78;5061779;28;20115;-69
2021/12/04 03:40:08;;;;;;;18.83;8.30;;;;;;;-145.18;100.00;60484.78;5060825;28;20886;-69
2021/12/04 03:42:36;;;;;;;18.87;9.07;;;;;;;-145.18;100.00;60484.78;5060380;28;20253;-69
2021/12/04 03:45:03;;;;;;;18.00;8.80;;;;;;;-145.18;100.00;60484.78;5061302;28;20048;-69
2021/12/04 03:47:30;;;;;;;20.00;8.90;;;;;;;-145.18;100.00;60484.78;5061470;28;20313;-69
2021/12/04 03:49:56;;;;;;;20.40;8.97;;;;;;;-145.18;100.00;60484.78;5059979;28;20443;-69
2021/12/04 03:52:22;;;;;;;19.13;8.97;;;;;;;-145.18;100.00;60484.78;5061194;28;20492;-69
2021/12/04 03:54:47;;;;;;;21.80;9.53;;;;;;;-145.18;100.00;60484.78;5061527;28;20046;-69
2021/12/04 03:57:13;;;;;;;21.13;8.97;;;;;;;-145.18;100.00;60484.78;5062005;28;20035;-69
2021/12/04 03:59:41;;;;;;;20.30;8.73;;;;;;;-145.18;100.00;60484.78;5060708;28;20673;-69
2021/12/04 04:02:12;;;;;;;23.23;9.40;;;;;;;-145.18;100.00;60484.78;5060613;28;20370;-69
2021/12/04 04:04:37;;;;;;;19.90;8.50;;;;;;;-145.18;100.00;60484.78;5060963;28;20851;-69
2021/12/04 04:07:04;;;;;;;22.23;9.50;;;;;;;-145.18;100.00;60484.78;5060642;28;20274;-69
2021/12/04 04:09:30;;;;;;;20.70;8.37;;;;;;;-145.18;100.00;60484.78;5060772;28;20027;-69
2021/12/04 04:11:57;;;;;;;23.97;9.23;;;;;;;-145.18;100.00;60484.78;5055596;28;20104;-69
2021/12/04 04:14:24;;;;;;;19.93;8.60;;;;;;;-145.18;100.00;60484.78;5053597;28;20555;-69
2021/12/04 04:16:50;;;;;;;22.73;10.13;;;;;;;-145.18;100.00;60484.78;5057861;28;20571;-69
2021/12/04 04:19:16;;;;;;;23.13;8.70;;;;;;;-145.18;100.00;60484.78;5058872;28;20358;-69
2021/12/04 04:21:42;;;;;;;26.23;10.97;;;;;;;-145.18;100.00;60484.78;5056571;28;20116;-69
2021/12/04 04:24:14;;;;;;;22.57;9.87;;;;;;;-145.18;100.00;60484.78;5061391;28;20492;-69
2021/12/04 04:26:43;;;;;;;23.08;9.88;;;;;;;-145.18;100.00;60484.78;5060436;28;20244;-70
2021/12/04 04:29:10;;;;;;;22.70;10.20;;;;;;;-145.18;100.00;60484.78;5061101;28;20246;-69
2021/12/04 04:31:45;;;;;;;21.57;9.70;;;;;;;-145.18;100.00;60484.78;5060301;28;20270;-69
2021/12/04 04:34:12;;;;;;;23.83;9.43;;;;;;;-145.18;100.00;60484.78;5058693;28;20478;-69
2021/12/04 05:11:44;;;;;;;26.53;10.67;;;;;;;-145.18;100.00;60484.78;5058022;28;20078;-69
2021/12/04 05:14:17;;;;;;;25.37;10.77;;;;;;;-145.18;100.00;60484.78;5048995;28;20212;-69
2021/12/04 05:16:49;;;;;;;26.03;10.43;;;;;;;-145.18;100.00;60484.78;5051004;28;20161;-69
2021/12/04 05:22:15;;;;;;;26.30;10.23;;;;;;;-145.18;100.00;60484.78;5019235;28;20329;-69
2021/12/04 05:24:41;;;;;;;25.53;10.73;;;;;;;-145.18;100.00;60484.78;5024527;28;20287;-69
2021/12/04 05:27:08;;;;;;;28.97;11.40;;;;;;;-145.18;100.00;60484.78;5015877;28;20060;-69
2021/12/04 05:29:35;;;;;;;29.53;11.30;;;;;;;-145.18;100.00;60484.78;5020466;28;20653;-69
2021/12/04 05:32:02;;;;;;;27.40;10.70;;;;;;;-145.18;100.00;60484.78;5016217;28;20103;-69
2021/12/04 05:34:27;;;;;;;28.90;10.83;;;;;;;-145.18;100.00;60484.78;5015797;28;20298;-69
2021/12/04 05:36:53;;;;;;;26.93;10.50;;;;;;;-145.18;100.00;60484.78;5015823;28;20645;-69
2021/12/04 05:39:18;;;;;;;30.93;12.83;;;;;;;-145.18;100.00;60484.78;5016380;28;20029;-69
2021/12/04 05:41:43;;;;;;;31.20;11.97;;;;;;;-145.18;100.00;60484.78;5016783;28;20026;-69
2021/12/04 05:44:10;;;;;;;29.77;11.27;;;;;;;-145.18;100.00;60484.78;5015839;28;20433;-69
2021/12/04 05:49:29;;;;;;;30.90;11.33;;;;;;;-145.18;100.00;60484.78;4933886;28;20270;-70
2021/12/04 05:57:05;;;;;;;30.20;11.87;;;;;;;-145.18;100.00;60484.78;4957569;28;20049;-69
2021/12/04 05:59:31;;;;;;;26.33;10.37;;;;;;;-145.18;100.00;60484.78;4959727;28;20356;-69
2021/12/04 06:01:57;;;;;;;33.37;11.90;;;;;;;-145.18;100.00;60484.78;4975393;28;20285;-70
2021/12/04 06:04:23;;;;;;;30.20;10.63;;;;;;;-145.18;100.00;60484.78;4965106;28;20203;-70
2021/12/04 06:06:48;;;;;;;35.53;11.97;;;;;;;-145.18;100.00;60484.78;4969455;28;20079;-69
2021/12/04 06:09:14;;;;;;;33.33;12.57;;;;;;;-145.18;100.00;60484.78;4966855;28;20065;-70
2021/12/04 06:11:39;;;;;;;28.83;11.47;;;;;;;-145.18;100.00;60484.78;4962935;28;20038;-69
2021/12/04 06:14:05;;;;;;;27.80;11.13;;;;;;;-145.18;100.00;60484.78;4972852;28;21319;-69
2021/12/04 06:16:31;;;;;;;24.23;9.93;;;;;;;-145.18;100.00;60484.78;4966392;28;20278;-70
2021/12/04 06:19:05;;;;;;;26.27;10.70;;;;;;;-145.18;100.00;60484.78;4963893;28;20114;-69
2021/12/04 06:24:15;;;;;;;26.90;9.43;;;;;;;-145.18;100.00;60484.78;4960593;28;20377;-69
2021/12/04 06:26:40;;;;;;;27.70;10.97;;;;;;;-145.18;100.00;60484.78;5015595;28;20378;-71
2021/12/04 06:29:06;;;;;;;27.93;10.77;;;;;;;-145.18;100.00;60484.78;5059209;28;20154;-69
2021/12/04 06:31:32;;;;;;;30.10;11.47;;;;;;;-145.18;100.00;60484.78;5058231;28;20032;-70
2021/12/04 06:33:57;;;;;;;26.67;10.43;;;;;;;-145.18;100.00;60484.78;5057821;28;20535;-70
2021/12/04 06:36:25;;;;;;;27.63;10.43;;;;;;;-145.18;100.00;60484.78;5061804;28;20270;-70
2021/12/04 06:38:50;;;;;;;27.47;9.47;;;;;;;-145.18;100.00;60484.78;5059123;28;20370;-70
2021/12/04 06:41:16;;;;;;;24.50;9.17;;;;;;;-145.18;100.00;60484.78;5055317;28;20097;-70
2021/12/04 06:43:47;;;;;;;26.80;10.50;;;;;;;-145.18;100.00;60484.78;5057757;28;20029;-69
2021/12/04 06:46:13;;;;;;;30.10;9.77;;;;;;;-145.18;100.00;60484.78;5057325;28;20242;-69
2021/12/04 06:48:42;;;;;;;24.83;10.80;;;;;;;-145.18;100.00;60484.78;5057718;28;20270;-70
2021/12/04 06:56:22;;;;;;;23.47;9.10;;;;;;;-145.18;100.00;60484.78;5004354;28;20519;-70
2021/12/04 06:58:52;;;;;;;21.40;8.67;;;;;;;-145.18;100.00;60484.78;5001512;28;20117;-70
2021/12/04 07:01:18;;;;;;;23.57;9.57;;;;;;;-145.18;100.00;60484.78;5007591;28;20385;-70
2021/12/04 07:03:43;;;;;;;25.57;9.17;;;;;;;-145.18;100.00;60484.78;5009854;28;20481;-69
2021/12/04 07:06:09;;;;;;;23.93;9.50;;;;;;;-145.18;100.00;60484.78;5014704;28;20049;-69
2021/12/04 07:08:35;;;;;;;21.90;8.60;;;;;;;-145.18;100.00;60484.78;5019619;28;20182;-70
2021/12/04 07:11:04;;;;;;;26.30;10.07;;;;;;;-145.18;100.00;60484.78;5017947;28;20045;-69
2021/12/04 07:13:30;;;;;;;24.23;7.90;;;;;;;-145.18;100.00;60484.78;5015543;28;20034;-69
2021/12/04 07:16:02;;;;;;;26.43;8.83;;;;;;;-145.18;100.00;60484.78;5014343;28;20779;-69
2021/12/04 07:18:27;;;;;;;24.10;9.35;;;;;;;-145.18;100.00;60484.78;5007526;28;20060;-68
2021/12/04 07:20:53;;;;;;;24.40;8.83;;;;;;;-145.18;100.00;60484.78;5011487;28;20658;-69
2021/12/04 07:23:18;;;;;;;24.33;9.60;;;;;;;-145.18;100.00;60484.78;5006750;28;20160;-68
2021/12/04 07:25:43;;;;;;;27.10;10.27;;;;;;;-145.18;100.00;60484.78;5009519;28;20044;-68
2021/12/04 07:28:09;;;;;;;27.00;9.10;;;;;;;-145.18;100.00;60484.78;5002913;28;20025;-68
2021/12/04 07:30:34;;;;;;;26.77;9.33;;;;;;;-145.18;100.00;60484.78;5021337;28;20036;-69
2021/12/04 07:33:00;;;;;;;25.57;10.03;;;;;;;-145.18;100.00;60484.78;5063984;28;20016;-68
2021/12/04 07:35:25;;;;;;;24.30;9.33;;;;;;;-145.18;100.00;60484.78;5061684;28;20020;-69
2021/12/04 07:37:50;;;;;;;29.17;9.43;;;;;;;-145.18;100.00;60484.78;5060825;28;20055;-68
2021/12/04 07:40:16;;;;;;;24.23;9.70;;;;;;;-145.18;100.00;60484.78;5061675;28;20078;-68
2021/12/04 07:42:42;;;;;;;23.87;8.47;;;;;;;-145.18;100.00;60484.78;5060704;28;20285;-68
2021/12/04 07:45:08;;;;;;;23.83;8.73;;;;;;;-145.18;100.00;60484.78;5059591;28;20032;-68
2021/12/04 07:47:34;;;;;;;22.70;8.53;;;;;;;-145.18;100.00;60484.78;5059049;28;20312;-68
2021/12/04 07:50:01;;;;;;;28.80;8.47;;;;;;;-145.18;100.00;60484.78;5050968;28;20416;-68
2021/12/04 07:52:26;;;;;;;25.47;9.13;;;;;;;-145.18;100.00;60484.78;5057972;28;20107;-68
2021/12/04 07:54:52;;;;;;;23.70;9.80;;;;;;;-145.18;100.00;60484.78;5057020;28;20373;-68
2021/12/04 07:57:18;;;;;;;23.80;9.50;;;;;;;-145.18;100.00;60484.78;5059627;28;20588;-68
2021/12/04 07:59:43;;;;;;;24.37;8.60;;;;;;;-145.18;100.00;60484.78;5058457;28;20028;-68
2021/12/04 08:02:09;;;;;;;27.63;9.50;;;;;;;-145.18;100.00;60484.78;5056438;28;20572;-68
2021/12/04 08:04:34;;;;;;;25.50;9.50;;;;;;;-145.18;100.00;60484.78;5059907;28;20036;-68
2021/12/04 08:07:00;;;;;;;21.90;8.70;;;;;;;-145.18;100.00;60484.78;5060752;28;20028;-68
2021/12/04 08:09:25;;;;;;;28.50;10.03;;;;;;;-145.18;100.00;60484.78;5059020;28;20020;-68
2021/12/04 08:11:50;;;;;;;20.60;8.97;;;;;;;-145.18;100.00;60484.78;5057748;28;20078;-68
2021/12/04 08:14:17;;;;;;;20.20;8.23;;;;;;;-145.18;100.00;60484.78;5058771;28;20463;-68
2021/12/04 08:16:44;;;;;;;23.27;9.20;;;;;;;-145.18;100.00;60484.78;5058659;28;20024;-69
2021/12/04 08:19:09;;;;;;;24.93;8.60;;;;;;;-145.18;100.00;60484.78;5058530;28;20025;-69
2021/12/04 08:21:35;;;;;;;20.30;8.27;;;;;;;-145.18;100.00;60484.78;5061429;28;20038;-69
2021/12/04 08:24:02;;;;;;;22.77;7.97;;;;;;;-145.18;100.00;60484.78;5060859;28;20295;-69
2021/12/04 08:26:28;;;;;;;22.67;8.70;;;;;;;-145.18;100.00;60484.78;5066959;28;20446;-69
2021/12/04 08:28:54;;;;;;;20.17;8.53;;;;;;;-145.18;100.00;60484.78;5063832;28;20278;-69
2021/12/04 08:31:19;;;;;;;25.03;8.97;;;;;;;-145.18;100.00;60484.78;5059037;28;20190;-69
2021/12/04 08:33:45;;;;;;;24.90;9.37;;;;;;;-145.18;100.00;60484.78;5056713;28;20266;-69
2021/12/04 08:36:10;;;;;;;26.30;8.87;;;;;;;-145.18;100.00;60484.78;5060441;28;20248;-68
2021/12/04 08:38:37;;;;;;;22.23;8.53;;;;;;;-145.18;100.00;60484.78;5060860;28;20067;-69
2021/12/04 08:41:04;;;;;;;23.67;9.30;;;;;;;-145.18;100.00;60484.78;5060302;28;20082;-69
2021/12/04 08:43:31;;;;;;;21.97;8.43;;;;;;;-145.18;100.00;60484.78;5057740;28;20706;-69
2021/12/04 08:46:00;;;;;;;22.47;8.50;;;;;;;-145.18;100.00;60484.78;5062647;28;20564;-68
2021/12/04 08:48:25;;;;;;;26.70;11.20;;;;;;;-145.18;100.00;60484.78;5064827;28;20305;-69
2021/12/04 08:50:51;;;;;;;25.93;10.97;;;;;;;-145.18;100.00;60484.78;5059813;28;20316;-68
2021/12/04 08:53:16;;;;;;;28.07;12.43;;;;;;;-145.18;100.00;60484.78;5059838;28;20024;-68
2021/12/04 08:55:43;;;;;;;25.57;11.77;;;;;;;-145.18;100.00;60484.78;5057639;28;20035;-69
2021/12/04 08:58:10;;;;;;;24.70;10.87;;;;;;;-145.18;100.00;60484.78;5057804;28;20512;-69
2021/12/04 09:00:49;;;;;;;21.17;10.30;;;;;;;-145.18;100.00;60484.78;5058653;28;20029;-69
2021/12/04 09:03:18;;;;;;;23.87;11.03;;;;;;;-145.18;100.00;60484.78;5055020;28;20032;-68
2021/12/04 09:05:43;;;;;;;22.03;10.10;;;;;;;-145.18;100.00;60484.78;5058875;28;20123;-70
2021/12/04 09:08:09;;;;;;;22.60;9.80;;;;;;;-145.18;100.00;60484.78;5060322;28;20111;-70
2021/12/04 09:10:40;;;;;;;23.13;10.63;;;;;;;-145.18;100.00;60484.78;5058855;28;20028;-70
2021/12/04 09:13:06;;;;;;;21.85;10.13;;;;;;;-145.18;100.00;60484.78;5060306;28;20070;-70
2021/12/04 09:15:32;;;;;;;20.67;9.70;;;;;;;-145.18;100.00;60484.78;5059993;28;20477;-70
2021/12/04 09:17:58;;;;;;;21.57;9.47;;;;;;;-145.18;100.00;60484.78;5059865;28;20108;-70
2021/12/04 09:20:25;;;;;;;17.10;8.20;;;;;;;-145.18;100.00;60484.78;5059620;28;20085;-70
2021/12/04 09:22:50;;;;;;;17.13;8.17;;;;;;;-145.18;100.00;60484.78;5059074;28;20108;-70
2021/12/04 09:25:24;;;;;;;19.40;8.13;;;;;;;-145.18;100.00;60484.78;5059199;28;20646;-70
2021/12/04 09:31:21;;;;;;;17.80;7.63;;;;;;;-145.18;100.00;60484.78;4976984;28;20038;-70
2021/12/04 09:33:58;;;;;;;17.33;8.07;;;;;;;-145.18;100.00;60484.78;4977190;28;20129;-70
2021/12/04 10:01:24;;;;;;;18.57;7.30;;;;;;;-145.18;100.00;60484.78;4896463;29;20214;-69
2021/12/04 10:18:19;;;;;;;18.87;7.80;;;;;;;-145.18;100.00;60484.78;5014591;28;20571;-68
2021/12/04 10:34:24;;;;;;;15.80;6.77;;;;;;;-145.18;100.00;60484.78;5014252;28;20388;-69
2021/12/04 10:36:50;;;;;;;15.17;6.63;;;;;;;-145.18;100.00;60484.78;5012845;28;20068;-69
2021/12/04 10:39:17;;;;;;;14.00;6.47;;;;;;;-145.18;100.00;60484.78;5014235;28;20107;-69
2021/12/04 10:41:45;;;;;;;13.07;5.93;;;;;;;-145.18;100.00;60484.78;5015548;28;20552;-69
2021/12/04 10:44:21;;;;;;;13.30;6.17;;;;;;;-145.18;100.00;60484.78;5013190;28;20077;-69
2021/12/04 10:47:02;;;;;;;16.83;7.20;;;;;;;-145.18;100.00;60484.78;5052301;28;20119;-69
2021/12/04 10:55:40;;;;;;;15.90;6.70;;;;;;;-145.18;100.00;60484.78;5055993;28;20773;-69
2021/12/04 10:58:28;;;;;;;13.43;6.47;;;;;;;-145.18;100.00;60484.78;5054621;28;20040;-69
2021/12/04 11:01:26;;;;;;;15.77;7.03;;;;;;;-145.18;100.00;60484.78;5052150;28;20299;-69
2021/12/04 11:36:34;;;;;;;18.00;7.73;;;;;;;-145.18;100.00;60484.78;5009745;28;20265;-69
2021/12/04 11:44:45;;;;;;;19.88;8.25;;;;;;;-145.18;100.00;60484.78;5012797;28;20060;-69
2021/12/04 11:46:56;;;;;;;21.50;8.63;;;;;;;-145.18;100.00;60484.78;5006169;28;20041;-69
2021/12/04 11:49:30;;;;;;;20.13;8.53;;;;;;;-145.18;100.00;60484.78;5012899;28;20404;-69
2021/12/04 11:52:01;;;;;;;19.10;8.77;;;;;;;-145.18;100.00;60484.78;5011622;28;20037;-69
2021/12/04 11:54:48;;;;;;;18.67;7.83;;;;;;;-145.18;100.00;60484.78;5036558;28;20569;-69
2021/12/04 11:57:20;;;;;;;15.77;7.10;;;;;;;-145.18;100.00;60484.78;5050449;28;20185;-69
2021/12/04 11:59:47;;;;;;;18.17;8.10;;;;;;;-145.18;100.00;60484.78;5060158;28;20408;-69
2021/12/04 12:02:22;;;;;;;20.27;9.37;;;;;;;-145.18;100.00;60484.78;5060500;28;20036;-69
2021/12/04 12:04:51;;;;;;;22.13;10.07;;;;;;;-145.18;100.00;60484.78;5060930;28;20504;-69
2021/12/04 12:07:20;;;;;;;25.20;11.17;;;;;;;-145.18;100.00;60484.78;5072344;28;20072;-69
2021/12/04 12:09:48;;;;;;;21.50;9.27;;;;;;;-145.18;100.00;60484.78;5059898;28;20604;-69
2021/12/04 12:12:17;;;;;;;19.87;8.90;;;;;;;-145.18;100.00;60484.78;5059066;28;20277;-69
2021/12/04 12:14:51;;;;;;;19.17;8.23;;;;;;;-145.18;100.00;60484.78;5058139;28;20273;-69
2021/12/04 12:17:38;;;;;;;18.90;8.13;;;;;;;-145.18;100.00;60484.78;5059495;28;20540;-69
2021/12/04 12:20:13;;;;;;;20.10;9.47;;;;;;;-145.18;100.00;60484.78;5061486;28;20024;-69
2021/12/04 12:25:45;;;;;;;21.13;9.40;;;;;;;-145.18;100.00;60484.78;5059555;28;20206;-69
2021/12/04 12:36:02;;;;;;;16.77;7.70;;;;;;;-145.18;100.00;60484.78;4944164;28;20054;-69
2021/12/04 12:36:40;;;;;;;18.23;6.17;;;;;;;-145.18;100.00;60484.78;4955441;28;20057;-69
2021/12/04 12:39:06;;;;;;;15.30;7.33;;;;;;;-145.18;100.00;60484.78;4958716;28;20042;-69
2021/12/04 12:41:41;;;;;;;17.07;7.53;;;;;;;-145.18;100.00;60484.78;4966275;28;20045;-69
2021/12/04 12:44:15;;;;;;;19.30;7.93;;;;;;;-145.18;100.00;60484.78;4962997;28;20146;-69
2021/12/04 12:46:46;;;;;;;17.80;8.30;;;;;;;-145.18;100.00;60484.78;4963229;28;20207;-69
2021/12/04 12:49:38;;;;;;;16.87;7.20;;;;;;;-145.18;100.00;60484.78;4958833;28;20541;-68
2021/12/04 12:52:05;;;;;;;13.80;6.68;;;;;;;-145.18;100.00;60484.78;4959985;28;20126;-68
2021/12/04 12:54:36;;;;;;;15.53;7.10;;;;;;;-145.18;100.00;60484.78;4959302;28;20543;-68
2021/12/04 12:57:12;;;;;;;14.97;6.37;;;;;;;-145.18;100.00;60484.78;4968613;28;20077;-68
2021/12/04 13:13:33;;;;;;;16.17;7.03;;;;;;;-145.18;100.00;60484.78;5051759;28;20047;-68
2021/12/04 13:16:14;;;;;;;15.80;6.33;;;;;;;-145.18;100.00;60484.78;5060133;28;20119;-68
2021/12/04 13:18:44;;;;;;;15.57;7.13;;;;;;;-145.18;100.00;60484.78;5053729;28;20024;-68
2021/12/04 13:21:11;;;;;;;14.77;6.73;;;;;;;-145.18;100.00;60484.78;5059356;28;20035;-68
2021/12/04 13:23:39;;;;;;;13.80;6.40;;;;;;;-145.18;100.00;60484.78;5060195;28;20029;-68
2021/12/04 13:26:14;;;;;;;13.90;6.87;;;;;;;-145.18;100.00;60484.78;5060445;28;20016;-68
2021/12/04 13:28:42;;;;;;;14.23;6.40;;;;;;;-145.18;100.00;60484.78;5060208;28;20052;-68
2021/12/04 13:31:08;;;;;;;14.37;6.93;;;;;;;-145.18;100.00;60484.78;5058997;28;20520;-68
2021/12/04 13:33:37;;;;;;;12.97;5.90;;;;;;;-145.18;100.00;60484.78;5059620;28;20060;-68
2021/12/04 13:36:28;;;;;;;13.50;6.10;;;;;;;-145.18;100.00;60484.78;5058978;28;20029;-68
2021/12/04 13:39:05;;;;;;;11.73;5.60;;;;;;;-145.18;100.00;60484.78;5058029;28;20043;-68
2021/12/04 13:41:32;;;;;;;10.90;5.30;;;;;;;-145.18;100.00;60484.78;5058416;28;20024;-68
2021/12/04 13:44:00;;;;;;;11.43;5.60;;;;;;;-145.18;100.00;60484.78;5059604;28;20025;-68
2021/12/04 13:46:26;;;;;;;11.80;5.13;;;;;;;-145.18;100.00;60484.78;5059079;28;20146;-68
2021/12/04 13:49:00;;;;;;;11.93;5.73;;;;;;;-145.18;100.00;60484.78;5060134;28;20280;-69
2021/12/04 13:51:26;;;;;;;11.53;5.60;;;;;;;-145.18;100.00;60484.78;5059473;28;20039;-69
2021/12/04 13:53:52;;;;;;;13.47;5.60;;;;;;;-145.18;100.00;60484.78;5060712;28;20032;-69
2021/12/04 13:56:22;;;;;;;14.37;6.77;;;;;;;-145.18;100.00;60484.78;5057553;28;20090;-70
2021/12/04 13:58:54;;;;;;;13.13;6.50;;;;;;;-145.18;100.00;60484.78;5059723;28;20485;-69
2021/12/04 14:01:21;;;;;;;12.57;5.88;;;;;;;-145.18;100.00;60484.78;5059261;28;20535;-68
2021/12/04 14:03:47;;;;;;;9.97;5.37;;;;;;;-145.18;100.00;60484.78;5059319;28;20033;-69
2021/12/04 14:06:17;;;;;;;11.17;5.00;;;;;;;-145.18;100.00;60484.78;5059922;28;20032;-69
2021/12/04 14:08:54;;;;;;;12.37;5.63;;;;;;;-145.18;100.00;60484.78;5057843;28;20021;-72
2021/12/04 14:11:32;;;;;;;11.10;5.33;;;;;;;-145.18;100.00;60484.78;5057212;28;20051;-69
2021/12/04 14:13:58;;;;;;;10.40;5.30;;;;;;;-145.18;100.00;60484.78;5047354;28;20020;-69
2021/12/04 14:16:25;;;;;;;11.83;5.77;;;;;;;-145.18;100.00;60484.78;5057373;28;20035;-69
2021/12/04 14:18:50;;;;;;;11.50;5.60;;;;;;;-145.18;100.00;60484.78;5056830;28;20028;-69
2021/12/04 14:21:16;;;;;;;12.30;5.80;;;;;;;-145.18;100.00;60484.78;5057914;28;20508;-69